sensor_id;sensor_type;location;lat;lon;timestamp;pressure;altitude;pressure_sealevel;temperature;humidity
55656;BME280;41530;52.382;5.270;2023-04-15T00:01:08;101129.88;;;18.75;40.62
55656;BME280;41530;52.382;5.270;2023-04-15T00:03:35;101136.19;;;18.74;40.67
55656;BME280;41530;52.382;5.270;2023-04-15T00:06:02;101131.00;;;18.73;40.37
55656;BME280;41530;52.382;5.270;2023-04-15T00:08:29;101128.78;;;18.68;40.62
55656;BME280;41530;52.382;5.270;2023-04-15T00:10:56;101131.44;;;18.68;40.63
55656;BME280;41530;52.382;5.270;2023-04-15T00:13:28;101130.31;;;18.71;40.54
55656;BME280;41530;52.382;5.270;2023-04-15T00:15:54;101127.94;;;18.68;40.63
55656;BME280;41530;52.382;5.270;2023-04-15T00:18:21;101127.94;;;18.68;40.64
55656;BME280;41530;52.382;5.270;2023-04-15T00:20:48;101138.59;;;18.68;40.63
55656;BME280;41530;52.382;5.270;2023-04-15T00:23:15;101136.78;;;18.68;40.57
55656;BME280;41530;52.382;5.270;2023-04-15T00:25:41;101137.63;;;18.69;40.65
55656;BME280;41530;52.382;5.270;2023-04-15T00:28:08;101128.25;;;18.65;40.65
55656;BME280;41530;52.382;5.270;2023-04-15T00:30:35;101132.72;;;18.64;40.69
55656;BME280;41530;52.382;5.270;2023-04-15T00:33:01;101133.56;;;18.65;40.64
55656;BME280;41530;52.382;5.270;2023-04-15T00:35:29;101127.72;;;18.61;40.65
55656;BME280;41530;52.382;5.270;2023-04-15T00:37:58;101130.25;;;18.63;40.71
55656;BME280;41530;52.382;5.270;2023-04-15T00:40:25;101128.88;;;18.59;40.67
55656;BME280;41530;52.382;5.270;2023-04-15T00:42:51;101130.69;;;18.58;40.77
55656;BME280;41530;52.382;5.270;2023-04-15T00:45:18;101129.97;;;18.56;40.74
55656;BME280;41530;52.382;5.270;2023-04-15T00:47:45;101138.69;;;18.58;40.60
55656;BME280;41530;52.382;5.270;2023-04-15T00:50:12;101141.47;;;18.57;40.57
55656;BME280;41530;52.382;5.270;2023-04-15T00:52:39;101136.28;;;18.55;40.78
55656;BME280;41530;52.382;5.270;2023-04-15T00:55:07;101132.63;;;18.56;40.80
55656;BME280;41530;52.382;5.270;2023-04-15T00:57:35;101133.78;;;18.53;40.56
55656;BME280;41530;52.382;5.270;2023-04-15T01:00:02;101139.94;;;18.54;40.81
55656;BME280;41530;52.382;5.270;2023-04-15T01:02:31;101127.09;;;18.49;40.60
55656;BME280;41530;52.382;5.270;2023-04-15T01:04:58;101132.25;;;18.51;40.64
55656;BME280;41530;52.382;5.270;2023-04-15T01:07:25;101133.25;;;18.50;40.74
55656;BME280;41530;52.382;5.270;2023-04-15T01:09:52;101138.59;;;18.50;40.62
55656;BME280;41530;52.382;5.270;2023-04-15T01:12:19;101145.19;;;18.46;40.72
55656;BME280;41530;52.382;5.270;2023-04-15T01:14:46;101154.72;;;18.48;40.60
55656;BME280;41530;52.382;5.270;2023-04-15T01:17:12;101141.69;;;18.45;40.58
55656;BME280;41530;52.382;5.270;2023-04-15T01:19:39;101143.50;;;18.45;40.54
55656;BME280;41530;52.382;5.270;2023-04-15T01:22:06;101145.50;;;18.43;40.65
55656;BME280;41530;52.382;5.270;2023-04-15T01:24:34;101150.81;;;18.43;40.65
55656;BME280;41530;52.382;5.270;2023-04-15T01:27:03;101143.97;;;18.40;40.72
55656;BME280;41530;52.382;5.270;2023-04-15T01:29:36;101153.63;;;18.41;40.43
55656;BME280;41530;52.382;5.270;2023-04-15T01:32:03;101138.56;;;18.32;40.66
55656;BME280;41530;52.382;5.270;2023-04-15T01:34:31;101145.09;;;18.38;40.73
55656;BME280;41530;52.382;5.270;2023-04-15T01:37:00;101148.59;;;18.38;40.71
55656;BME280;41530;52.382;5.270;2023-04-15T01:39:27;101146.09;;;18.37;40.55
55656;BME280;41530;52.382;5.270;2023-04-15T01:41:54;101142.59;;;18.36;40.55
55656;BME280;41530;52.382;5.270;2023-04-15T01:44:20;101151.56;;;18.35;40.61
55656;BME280;41530;52.382;5.270;2023-04-15T01:46:47;101157.88;;;18.34;40.51
55656;BME280;41530;52.382;5.270;2023-04-15T01:49:13;101157.88;;;18.34;40.60
55656;BME280;41530;52.382;5.270;2023-04-15T01:51:40;101157.88;;;18.34;40.66
55656;BME280;41530;52.382;5.270;2023-04-15T01:54:07;101161.53;;;18.33;40.61
55656;BME280;41530;52.382;5.270;2023-04-15T01:56:33;101158.19;;;18.31;40.65
55656;BME280;41530;52.382;5.270;2023-04-15T01:59:01;101158.19;;;18.31;40.62
55656;BME280;41530;52.382;5.270;2023-04-15T02:01:29;101153.16;;;18.28;40.50
55656;BME280;41530;52.382;5.270;2023-04-15T02:03:55;101153.00;;;18.30;40.61
55656;BME280;41530;52.382;5.270;2023-04-15T02:06:22;101150.47;;;18.28;40.64
55656;BME280;41530;52.382;5.270;2023-04-15T02:08:49;101153.28;;;18.27;40.68
55656;BME280;41530;52.382;5.270;2023-04-15T02:11:16;101160.44;;;18.26;40.48
55656;BME280;41530;52.382;5.270;2023-04-15T02:13:43;101166.75;;;18.25;40.71
55656;BME280;41530;52.382;5.270;2023-04-15T02:16:17;101159.78;;;18.24;40.49
55656;BME280;41530;52.382;5.270;2023-04-15T02:18:45;101156.41;;;18.22;40.75
55656;BME280;41530;52.382;5.270;2023-04-15T02:21:12;101165.41;;;18.21;40.62
55656;BME280;41530;52.382;5.270;2023-04-15T02:23:39;101175.22;;;18.21;40.65
55656;BME280;41530;52.382;5.270;2023-04-15T02:26:06;101168.19;;;18.20;40.52
55656;BME280;41530;52.382;5.270;2023-04-15T02:28:33;101171.00;;;18.18;40.61
55656;BME280;41530;52.382;5.270;2023-04-15T02:31:03;101175.50;;;18.17;40.60
55656;BME280;41530;52.382;5.270;2023-04-15T02:33:31;101176.47;;;18.16;40.61
55656;BME280;41530;52.382;5.270;2023-04-15T02:35:58;101178.44;;;18.14;40.54
55656;BME280;41530;52.382;5.270;2023-04-15T02:38:25;101181.94;;;18.15;40.61
55656;BME280;41530;52.382;5.270;2023-04-15T02:40:51;101189.94;;;18.15;40.62
55656;BME280;41530;52.382;5.270;2023-04-15T02:43:18;101196.25;;;18.14;40.54
55656;BME280;41530;52.382;5.270;2023-04-15T02:45:45;101196.38;;;18.12;40.45
55656;BME280;41530;52.382;5.270;2023-04-15T02:48:12;101195.56;;;18.12;40.57
55656;BME280;41530;52.382;5.270;2023-04-15T02:50:39;101191.22;;;18.11;40.74
55656;BME280;41530;52.382;5.270;2023-04-15T02:53:06;101190.53;;;18.09;40.34
55656;BME280;41530;52.382;5.270;2023-04-15T02:55:33;101196.84;;;18.08;40.60
55656;BME280;41530;52.382;5.270;2023-04-15T02:57:59;101201.34;;;18.07;40.68
55656;BME280;41530;52.382;5.270;2023-04-15T03:00:26;101201.47;;;18.06;40.71
55656;BME280;41530;52.382;5.270;2023-04-15T03:03:02;101202.31;;;18.06;40.66
55656;BME280;41530;52.382;5.270;2023-04-15T03:05:29;101206.81;;;18.06;40.70
55656;BME280;41530;52.382;5.270;2023-04-15T03:07:55;101200.63;;;18.05;40.73
55656;BME280;41530;52.382;5.270;2023-04-15T03:10:22;101206.09;;;18.04;40.83
55656;BME280;41530;52.382;5.270;2023-04-15T03:12:49;101200.78;;;18.04;40.72
55656;BME280;41530;52.382;5.270;2023-04-15T03:15:16;101203.44;;;18.04;40.70
55656;BME280;41530;52.382;5.270;2023-04-15T03:17:42;101196.28;;;18.04;40.91
55656;BME280;41530;52.382;5.270;2023-04-15T03:20:09;101206.09;;;18.04;40.71
55656;BME280;41530;52.382;5.270;2023-04-15T03:22:36;101210.59;;;18.03;40.73
55656;BME280;41530;52.382;5.270;2023-04-15T03:25:03;101211.56;;;18.02;40.79
55656;BME280;41530;52.382;5.270;2023-04-15T03:27:30;101218.03;;;18.00;40.82
55656;BME280;41530;52.382;5.270;2023-04-15T03:29:57;101215.50;;;17.98;40.89
55656;BME280;41530;52.382;5.270;2023-04-15T03:32:23;101217.19;;;17.99;40.83
55656;BME280;41530;52.382;5.270;2023-04-15T03:34:50;101224.31;;;17.99;40.83
55656;BME280;41530;52.382;5.270;2023-04-15T03:37:16;101220.16;;;17.96;40.79
55656;BME280;41530;52.382;5.270;2023-04-15T03:39:43;101221.97;;;17.96;40.96
55656;BME280;41530;52.382;5.270;2023-04-15T03:42:10;101216.81;;;17.94;40.83
55656;BME280;41530;52.382;5.270;2023-04-15T03:44:36;101219.59;;;17.93;40.86
55656;BME280;41530;52.382;5.270;2023-04-15T03:47:03;101229.41;;;17.92;40.94
55656;BME280;41530;52.382;5.270;2023-04-15T03:49:30;101232.22;;;17.91;40.95
55656;BME280;41530;52.382;5.270;2023-04-15T03:51:56;101232.50;;;17.88;40.85
55656;BME280;41530;52.382;5.270;2023-04-15T03:54:23;101235.16;;;17.88;40.87
55656;BME280;41530;52.382;5.270;2023-04-15T03:56:50;101236.13;;;17.87;40.89
55656;BME280;41530;52.382;5.270;2023-04-15T03:59:16;101244.25;;;17.85;40.87
55656;BME280;41530;52.382;5.270;2023-04-15T04:01:43;101246.09;;;17.85;40.91
55656;BME280;41530;52.382;5.270;2023-04-15T04:04:10;101246.91;;;17.85;40.93
55656;BME280;41530;52.382;5.270;2023-04-15T04:06:36;101242.75;;;17.83;40.98
55656;BME280;41530;52.382;5.270;2023-04-15T04:09:03;101250.75;;;17.83;40.97
55656;BME280;41530;52.382;5.270;2023-04-15T04:11:30;101262.38;;;17.82;40.92
55656;BME280;41530;52.382;5.270;2023-04-15T04:13:57;101269.50;;;17.81;41.10
55656;BME280;41530;52.382;5.270;2023-04-15T04:16:23;101263.34;;;17.80;41.05
55656;BME280;41530;52.382;5.270;2023-04-15T04:18:50;101271.31;;;17.80;41.14
55656;BME280;41530;52.382;5.270;2023-04-15T04:21:17;101274.13;;;17.79;41.07
55656;BME280;41530;52.382;5.270;2023-04-15T04:23:44;101277.63;;;17.79;41.09
55656;BME280;41530;52.382;5.270;2023-04-15T04:26:10;101276.94;;;17.77;40.94
55656;BME280;41530;52.382;5.270;2023-04-15T04:28:37;101283.22;;;17.76;40.98
55656;BME280;41530;52.382;5.270;2023-04-15T04:31:06;101282.38;;;17.76;41.03
55656;BME280;41530;52.382;5.270;2023-04-15T04:33:33;101287.84;;;17.74;41.02
55656;BME280;41530;52.382;5.270;2023-04-15T04:35:59;101290.66;;;17.73;40.96
55656;BME280;41530;52.382;5.270;2023-04-15T04:38:26;101299.47;;;17.73;40.98
55656;BME280;41530;52.382;5.270;2023-04-15T04:40:53;101292.63;;;17.71;40.98
55656;BME280;41530;52.382;5.270;2023-04-15T04:43:19;101297.97;;;17.71;40.92
55656;BME280;41530;52.382;5.270;2023-04-15T04:45:46;101301.59;;;17.70;40.96
55656;BME280;41530;52.382;5.270;2023-04-15T04:48:13;101311.41;;;17.69;41.00
55656;BME280;41530;52.382;5.270;2023-04-15T04:50:39;101319.38;;;17.69;41.14
55656;BME280;41530;52.382;5.270;2023-04-15T04:53:06;101321.22;;;17.69;41.24
55656;BME280;41530;52.382;5.270;2023-04-15T04:55:33;101328.34;;;17.68;41.12
55656;BME280;41530;52.382;5.270;2023-04-15T04:58:02;101326.81;;;17.66;41.02
55656;BME280;41530;52.382;5.270;2023-04-15T05:00:28;101332.00;;;17.67;41.10
55656;BME280;41530;52.382;5.270;2023-04-15T05:02:55;101339.25;;;17.65;41.02
55656;BME280;41530;52.382;5.270;2023-04-15T05:05:22;101347.25;;;17.65;41.02
55656;BME280;41530;52.382;5.270;2023-04-15T05:07:49;101344.72;;;17.64;41.23
55656;BME280;41530;52.382;5.270;2023-04-15T05:10:16;101350.03;;;17.64;41.21
55656;BME280;41530;52.382;5.270;2023-04-15T05:12:43;101354.53;;;17.63;41.25
55656;BME280;41530;52.382;5.270;2023-04-15T05:15:10;101360.69;;;17.64;41.06
55656;BME280;41530;52.382;5.270;2023-04-15T05:17:37;101356.31;;;17.63;41.21
55656;BME280;41530;52.382;5.270;2023-04-15T05:20:04;101359.94;;;17.62;41.22
55656;BME280;41530;52.382;5.270;2023-04-15T05:22:31;101354.75;;;17.60;40.84
55656;BME280;41530;52.382;5.270;2023-04-15T05:24:57;101363.59;;;17.61;41.31
55656;BME280;41530;52.382;5.270;2023-04-15T05:27:24;101361.78;;;17.61;41.33
55656;BME280;41530;52.382;5.270;2023-04-15T05:29:51;101371.56;;;17.61;41.33
55656;BME280;41530;52.382;5.270;2023-04-15T05:32:17;101379.69;;;17.59;41.22
55656;BME280;41530;52.382;5.270;2023-04-15T05:34:44;101382.22;;;17.61;41.25
55656;BME280;41530;52.382;5.270;2023-04-15T05:37:11;101385.00;;;17.59;41.57
55656;BME280;41530;52.382;5.270;2023-04-15T05:39:38;101389.34;;;17.60;41.69
55656;BME280;41530;52.382;5.270;2023-04-15T05:42:04;101392.16;;;17.59;41.39
55656;BME280;41530;52.382;5.270;2023-04-15T05:44:31;101395.66;;;17.59;41.56
55656;BME280;41530;52.382;5.270;2023-04-15T05:46:58;101399.28;;;17.58;41.71
55656;BME280;41530;52.382;5.270;2023-04-15T05:49:25;101400.97;;;17.59;41.97
55656;BME280;41530;52.382;5.270;2023-04-15T05:51:51;101406.44;;;17.58;42.20
55656;BME280;41530;52.382;5.270;2023-04-15T05:54:18;101413.44;;;17.59;41.76
55656;BME280;41530;52.382;5.270;2023-04-15T05:56:45;101410.78;;;17.59;41.89
55656;BME280;41530;52.382;5.270;2023-04-15T05:59:12;101425.06;;;17.58;41.76
55656;BME280;41530;52.382;5.270;2023-04-15T06:01:38;101428.56;;;17.58;42.07
55656;BME280;41530;52.382;5.270;2023-04-15T06:04:05;101426.19;;;17.55;41.75
55656;BME280;41530;52.382;5.270;2023-04-15T06:06:32;101435.00;;;17.56;42.15
55656;BME280;41530;52.382;5.270;2023-04-15T06:08:59;101427.88;;;17.56;42.12
55656;BME280;41530;52.382;5.270;2023-04-15T06:11:26;101433.88;;;17.58;42.21
55656;BME280;41530;52.382;5.270;2023-04-15T06:13:53;101445.34;;;17.59;42.26
55656;BME280;41530;52.382;5.270;2023-04-15T06:16:20;101447.19;;;17.58;42.54
55656;BME280;41530;52.382;5.270;2023-04-15T06:18:47;101452.38;;;17.60;42.10
55656;BME280;41530;52.382;5.270;2023-04-15T06:21:14;101451.66;;;17.58;42.03
55656;BME280;41530;52.382;5.270;2023-04-15T06:23:41;101463.84;;;17.60;42.03
55656;BME280;41530;52.382;5.270;2023-04-15T06:26:07;101470.84;;;17.61;41.65
55656;BME280;41530;52.382;5.270;2023-04-15T06:28:34;101476.03;;;17.63;41.73
55656;BME280;41530;52.382;5.270;2023-04-15T06:31:01;101477.75;;;17.64;41.66
55656;BME280;41530;52.382;5.270;2023-04-15T06:33:28;101476.78;;;17.65;41.69
55656;BME280;41530;52.382;5.270;2023-04-15T06:35:54;101469.38;;;17.68;41.48
55656;BME280;41530;52.382;5.270;2023-04-15T06:38:21;101471.47;;;17.74;41.50
55656;BME280;41530;52.382;5.270;2023-04-15T06:40:47;101481.44;;;17.82;41.39
55656;BME280;41530;52.382;5.270;2023-04-15T06:43:14;101483.25;;;17.91;41.35
55656;BME280;41530;52.382;5.270;2023-04-15T06:45:40;101482.56;;;17.99;41.44
55656;BME280;41530;52.382;5.270;2023-04-15T06:48:07;101488.88;;;18.07;41.43
55656;BME280;41530;52.382;5.270;2023-04-15T06:50:34;101496.16;;;18.15;41.26
55656;BME280;41530;52.382;5.270;2023-04-15T06:53:01;101492.81;;;18.23;41.34
55656;BME280;41530;52.382;5.270;2023-04-15T06:55:28;101493.78;;;18.31;41.22
55656;BME280;41530;52.382;5.270;2023-04-15T06:57:55;101504.69;;;18.38;41.23
55656;BME280;41530;52.382;5.270;2023-04-15T07:00:21;101502.31;;;18.44;41.41
55656;BME280;41530;52.382;5.270;2023-04-15T07:02:48;101509.75;;;18.50;41.18
55656;BME280;41530;52.382;5.270;2023-04-15T07:05:15;101510.88;;;18.58;41.11
55656;BME280;41530;52.382;5.270;2023-04-15T07:07:42;101509.50;;;18.63;41.21
55656;BME280;41530;52.382;5.270;2023-04-15T07:10:09;101510.72;;;18.69;41.11
55656;BME280;41530;52.382;5.270;2023-04-15T07:12:37;101520.84;;;18.75;40.99
55656;BME280;41530;52.382;5.270;2023-04-15T07:15:04;101515.75;;;18.81;40.84
55656;BME280;41530;52.382;5.270;2023-04-15T07:17:32;101527.53;;;18.89;40.99
55656;BME280;41530;52.382;5.270;2023-04-15T07:19:58;101536.50;;;18.97;40.87
55656;BME280;41530;52.382;5.270;2023-04-15T07:22:25;101534.91;;;19.04;40.69
55656;BME280;41530;52.382;5.270;2023-04-15T07:24:51;101534.19;;;19.12;40.70
55656;BME280;41530;52.382;5.270;2023-04-15T07:27:18;101536.44;;;19.16;40.10
55656;BME280;41530;52.382;5.270;2023-04-15T07:29:45;101547.34;;;19.23;40.05
55656;BME280;41530;52.382;5.270;2023-04-15T07:32:11;101544.69;;;19.23;40.01
55656;BME280;41530;52.382;5.270;2023-04-15T07:34:38;101550.72;;;19.25;39.86
55656;BME280;41530;52.382;5.270;2023-04-15T07:37:05;101554.94;;;19.28;39.71
55656;BME280;41530;52.382;5.270;2023-04-15T07:39:31;101561.81;;;19.30;39.59
55656;BME280;41530;52.382;5.270;2023-04-15T07:41:58;101557.97;;;19.33;39.53
55656;BME280;41530;52.382;5.270;2023-04-15T07:44:26;101565.69;;;19.36;39.50
55656;BME280;41530;52.382;5.270;2023-04-15T07:46:52;101560.22;;;19.37;39.18
55656;BME280;41530;52.382;5.270;2023-04-15T07:49:19;101565.28;;;19.40;39.00
55656;BME280;41530;52.382;5.270;2023-04-15T07:51:47;101568.31;;;19.45;38.99
55656;BME280;41530;52.382;5.270;2023-04-15T07:54:14;101559.91;;;19.50;39.17
55656;BME280;41530;52.382;5.270;2023-04-15T07:56:41;101572.00;;;19.54;38.92
55656;BME280;41530;52.382;5.270;2023-04-15T07:59:08;101576.59;;;19.62;39.04
55656;BME280;41530;52.382;5.270;2023-04-15T08:01:35;101585.84;;;19.67;38.66
55656;BME280;41530;52.382;5.270;2023-04-15T08:04:03;101581.56;;;19.74;38.47
55656;BME280;41530;52.382;5.270;2023-04-15T08:06:30;101589.56;;;19.84;38.68
55656;BME280;41530;52.382;5.270;2023-04-15T08:08:56;101590.47;;;19.92;38.72
55656;BME280;41530;52.382;5.270;2023-04-15T08:11:23;101602.09;;;20.01;38.62
55656;BME280;41530;52.382;5.270;2023-04-15T08:13:51;101601.22;;;20.10;38.08
55656;BME280;41530;52.382;5.270;2023-04-15T08:16:22;101606.63;;;20.18;38.03
55656;BME280;41530;52.382;5.270;2023-04-15T08:18:51;101607.84;;;20.24;38.90
55656;BME280;41530;52.382;5.270;2023-04-15T08:21:18;101601.50;;;20.25;38.03
55656;BME280;41530;52.382;5.270;2023-04-15T08:23:47;101610.22;;;20.27;38.25
55656;BME280;41530;52.382;5.270;2023-04-15T08:26:15;101607.25;;;20.30;37.85
55656;BME280;41530;52.382;5.270;2023-04-15T08:28:44;101611.03;;;20.37;38.04
55656;BME280;41530;52.382;5.270;2023-04-15T08:31:13;101610.56;;;20.42;37.57
55656;BME280;41530;52.382;5.270;2023-04-15T08:33:40;101609.28;;;20.46;37.49
55656;BME280;41530;52.382;5.270;2023-04-15T08:36:07;101611.31;;;20.52;37.14
55656;BME280;41530;52.382;5.270;2023-04-15T08:38:33;101620.59;;;20.57;37.05
55656;BME280;41530;52.382;5.270;2023-04-15T08:41:17;101631.66;;;20.62;36.94
55656;BME280;41530;52.382;5.270;2023-04-15T08:43:56;101625.31;;;20.63;36.67
55656;BME280;41530;52.382;5.270;2023-04-15T08:46:23;101627.31;;;20.61;37.04
55656;BME280;41530;52.382;5.270;2023-04-15T08:48:50;101630.13;;;20.60;36.75
55656;BME280;41530;52.382;5.270;2023-04-15T08:51:17;101633.94;;;20.57;37.14
55656;BME280;41530;52.382;5.270;2023-04-15T08:53:45;101646.91;;;20.52;37.17
55656;BME280;41530;52.382;5.270;2023-04-15T08:56:14;101645.00;;;20.45;37.32
55656;BME280;41530;52.382;5.270;2023-04-15T08:58:43;101651.13;;;20.37;37.13
55656;BME280;41530;52.382;5.270;2023-04-15T09:01:13;101653.50;;;20.31;37.03
55656;BME280;41530;52.382;5.270;2023-04-15T09:03:40;101661.28;;;20.24;37.86
55656;BME280;41530;52.382;5.270;2023-04-15T09:06:07;101668.22;;;20.17;37.93
55656;BME280;41530;52.382;5.270;2023-04-15T09:08:34;101671.47;;;20.11;37.96
55656;BME280;41530;52.382;5.270;2023-04-15T09:11:01;101666.59;;;20.06;38.02
55656;BME280;41530;52.382;5.270;2023-04-15T09:13:28;101678.56;;;20.02;38.14
55656;BME280;41530;52.382;5.270;2023-04-15T09:15:55;101678.00;;;19.99;38.15
55656;BME280;41530;52.382;5.270;2023-04-15T09:18:31;101683.53;;;19.97;37.70
55656;BME280;41530;52.382;5.270;2023-04-15T09:21:12;101681.00;;;19.96;37.74
55656;BME280;41530;52.382;5.270;2023-04-15T09:23:43;101680.16;;;19.95;38.07
55656;BME280;41530;52.382;5.270;2023-04-15T09:26:19;101680.28;;;19.93;38.37
55656;BME280;41530;52.382;5.270;2023-04-15T09:29:10;101692.34;;;19.98;37.96
55656;BME280;41530;52.382;5.270;2023-04-15T09:31:40;101695.72;;;20.00;38.42
55656;BME280;41530;52.382;5.270;2023-04-15T09:34:08;101699.94;;;20.02;38.07
55656;BME280;41530;52.382;5.270;2023-04-15T09:36:51;101700.63;;;20.04;37.63
55656;BME280;41530;52.382;5.270;2023-04-15T09:39:18;101706.09;;;20.03;38.14
55656;BME280;41530;52.382;5.270;2023-04-15T09:41:45;101712.44;;;20.02;38.33
55656;BME280;41530;52.382;5.270;2023-04-15T09:44:25;101710.91;;;19.99;37.96
55656;BME280;41530;52.382;5.270;2023-04-15T09:46:52;101705.88;;;19.96;38.70
55656;BME280;41530;52.382;5.270;2023-04-15T09:49:18;101708.84;;;19.93;38.72
55656;BME280;41530;52.382;5.270;2023-04-15T09:51:46;101720.63;;;19.90;39.10
55656;BME280;41530;52.382;5.270;2023-04-15T09:54:33;101721.22;;;19.84;38.60
55656;BME280;41530;52.382;5.270;2023-04-15T09:57:04;101730.53;;;19.80;38.81
55656;BME280;41530;52.382;5.270;2023-04-15T09:59:31;101721.09;;;19.76;39.09
55656;BME280;41530;52.382;5.270;2023-04-15T10:01:58;101723.34;;;19.71;39.34
55656;BME280;41530;52.382;5.270;2023-04-15T10:04:26;101722.97;;;19.66;39.04
55656;BME280;41530;52.382;5.270;2023-04-15T10:06:54;101737.59;;;19.62;39.32
55656;BME280;41530;52.382;5.270;2023-04-15T10:09:21;101738.84;;;19.58;39.43
55656;BME280;41530;52.382;5.270;2023-04-15T10:11:48;101745.19;;;19.57;39.39
55656;BME280;41530;52.382;5.270;2023-04-15T10:14:15;101741.81;;;19.55;39.53
55656;BME280;41530;52.382;5.270;2023-04-15T10:16:45;101750.94;;;19.52;39.56
55656;BME280;41530;52.382;5.270;2023-04-15T10:19:14;101745.06;;;19.49;39.68
55656;BME280;41530;52.382;5.270;2023-04-15T10:21:44;101749.97;;;19.44;39.70
55656;BME280;41530;52.382;5.270;2023-04-15T10:24:12;101761.91;;;19.40;39.68
55656;BME280;41530;52.382;5.270;2023-04-15T10:26:39;101755.00;;;19.37;39.77
55656;BME280;41530;52.382;5.270;2023-04-15T10:29:07;101758.94;;;19.33;39.89
55656;BME280;41530;52.382;5.270;2023-04-15T10:31:34;101759.25;;;19.30;39.91
55656;BME280;41530;52.382;5.270;2023-04-15T10:34:05;101766.69;;;19.27;40.06
55656;BME280;41530;52.382;5.270;2023-04-15T10:36:32;101759.94;;;19.22;39.96
55656;BME280;41530;52.382;5.270;2023-04-15T10:38:59;101770.72;;;19.21;40.15
55656;BME280;41530;52.382;5.270;2023-04-15T10:41:27;101758.50;;;19.18;40.21
55656;BME280;41530;52.382;5.270;2023-04-15T10:44:01;101768.34;;;19.18;39.99
55656;BME280;41530;52.382;5.270;2023-04-15T10:46:36;101774.81;;;19.15;40.14
55656;BME280;41530;52.382;5.270;2023-04-15T10:49:19;101772.28;;;19.14;40.04
55656;BME280;41530;52.382;5.270;2023-04-15T10:51:56;101782.97;;;19.14;39.76
55656;BME280;41530;52.382;5.270;2023-04-15T10:57:37;101786.16;;;19.17;39.93
55656;BME280;41530;52.382;5.270;2023-04-15T11:02:40;101794.59;;;19.22;40.04
55656;BME280;41530;52.382;5.270;2023-04-15T11:05:08;101786.59;;;19.22;40.20
55656;BME280;41530;52.382;5.270;2023-04-15T11:07:39;101792.91;;;19.21;40.53
55656;BME280;41530;52.382;5.270;2023-04-15T11:12:40;101801.50;;;19.25;40.61
55656;BME280;41530;52.382;5.270;2023-04-15T11:17:52;101810.22;;;19.27;40.49
55656;BME280;41530;52.382;5.270;2023-04-15T11:20:19;101806.56;;;19.28;40.49
55656;BME280;41530;52.382;5.270;2023-04-15T11:22:53;101809.22;;;19.28;40.11
55656;BME280;41530;52.382;5.270;2023-04-15T11:25:40;101811.91;;;19.28;40.34
55656;BME280;41530;52.382;5.270;2023-04-15T11:28:07;101819.06;;;19.28;40.39
55656;BME280;41530;52.382;5.270;2023-04-15T11:30:35;101813.72;;;19.28;40.44
55656;BME280;41530;52.382;5.270;2023-04-15T11:33:04;101816.38;;;19.28;40.22
55656;BME280;41530;52.382;5.270;2023-04-15T11:35:31;101816.53;;;19.26;40.31
55656;BME280;41530;52.382;5.270;2023-04-15T11:38:04;101818.06;;;19.29;40.91
55656;BME280;41530;52.382;5.270;2023-04-15T11:40:34;101820.31;;;19.33;42.49
55656;BME280;41530;52.382;5.270;2023-04-15T11:43:10;101819.75;;;19.39;42.19
55656;BME280;41530;52.382;5.270;2023-04-15T11:45:54;101828.16;;;19.44;42.74
55656;BME280;41530;52.382;5.270;2023-04-15T11:48:27;101834.22;;;19.46;42.56
55656;BME280;41530;52.382;5.270;2023-04-15T11:50:54;101839.16;;;19.51;42.48
55656;BME280;41530;52.382;5.270;2023-04-15T11:53:22;101830.88;;;19.54;42.82
55656;BME280;41530;52.382;5.270;2023-04-15T11:55:51;101841.56;;;19.54;41.53
55656;BME280;41530;52.382;5.270;2023-04-15T11:58:20;101838.91;;;19.54;41.70
55656;BME280;41530;52.382;5.270;2023-04-15T12:00:56;101832.72;;;19.53;41.28
55656;BME280;41530;52.382;5.270;2023-04-15T12:03:31;101850.09;;;19.48;40.86
55656;BME280;41530;52.382;5.270;2023-04-15T12:06:21;101854.44;;;19.39;39.82
55656;BME280;41530;52.382;5.270;2023-04-15T12:11:40;101861.88;;;19.26;40.03
55656;BME280;41530;52.382;5.270;2023-04-15T12:19:24;101875.63;;;19.31;40.67
55656;BME280;41530;52.382;5.270;2023-04-15T12:21:56;101872.41;;;19.28;40.40
55656;BME280;41530;52.382;5.270;2023-04-15T12:24:25;101861.75;;;19.28;41.38
55656;BME280;41530;52.382;5.270;2023-04-15T12:26:54;101864.81;;;19.33;41.54
55656;BME280;41530;52.382;5.270;2023-04-15T12:29:27;101873.53;;;19.35;41.20
55656;BME280;41530;52.382;5.270;2023-04-15T12:32:04;101868.06;;;19.36;40.83
55656;BME280;41530;52.382;5.270;2023-04-15T12:34:34;101878.59;;;19.38;41.82
55656;BME280;41530;52.382;5.270;2023-04-15T12:37:03;101885.63;;;19.39;41.01
55656;BME280;41530;52.382;5.270;2023-04-15T12:39:31;101877.88;;;19.36;40.46
55656;BME280;41530;52.382;5.270;2023-04-15T12:42:00;101888.00;;;19.32;40.72
55656;BME280;41530;52.382;5.270;2023-04-15T12:44:27;101891.63;;;19.31;40.65
55656;BME280;41530;52.382;5.270;2023-04-15T12:46:54;101896.44;;;19.28;40.10
55656;BME280;41530;52.382;5.270;2023-04-15T12:49:22;101895.72;;;19.26;40.38
55656;BME280;41530;52.382;5.270;2023-04-15T12:51:52;101892.34;;;19.23;40.35
55656;BME280;41530;52.382;5.270;2023-04-15T12:54:19;101899.06;;;19.18;40.16
55656;BME280;41530;52.382;5.270;2023-04-15T12:56:48;101903.25;;;19.11;40.53
55656;BME280;41530;52.382;5.270;2023-04-15T12:59:15;101898.22;;;19.17;40.82
55656;BME280;41530;52.382;5.270;2023-04-15T13:01:44;101908.47;;;19.22;41.58
55656;BME280;41530;52.382;5.270;2023-04-15T13:04:12;101910.03;;;19.25;40.70
55656;BME280;41530;52.382;5.270;2023-04-15T13:06:38;101908.22;;;19.25;40.68
55656;BME280;41530;52.382;5.270;2023-04-15T13:09:05;101919.59;;;19.27;41.93
55656;BME280;41530;52.382;5.270;2023-04-15T13:11:32;101923.53;;;19.33;41.68
55656;BME280;41530;52.382;5.270;2023-04-15T13:14:00;101923.13;;;19.37;41.57